»·PEaware :: AAL747 KLAS-KLAX

AAL747 :: KLAS-KLAX

FLIGHT INFORMATION

Flight Status: Arrived
Operator:
American Airlines
More flights by this operator :: More flights under this callsign
Pilot: Adam A. (5112)
Aircraft: BOEING 767-300
(B763)
More flights by this aircraft type
Origin: KLAS McCarran Intl
United States
Destination: KLAX Los Angeles Intl
United States
More flights between these airports :: More routes between these airports
Route: +BOACH6 HEC RIIVR2
File this flight plan on PilotEdge
Remarks:
Altitude:
(Current/Filed)
25,000ft
Speed:
(Current/Filed)
440kts
Departed: 01-Mar-16 06:16 PM
Arrived: 01-Mar-16 07:04 PM
Distance/Time
Traveled:
205nm/0:48
Distance/Time
To Go:
Arrived

Flight Plot

Page will automatically refresh every two minutes.


Map Options




Map Legend


Flown Route
Filed Route
Departure Airport
Arrival Airport
Navaid (VOR, NDB)
Fix

Horizontal Profiles

Position Reports

Time Latitude Longitude Heading Altitude Ground
Speed
01-Mar-16 17:36 36.082159 -115.151085 12 2152ft 0kts
01-Mar-16 17:37 36.082159 -115.151085 12 2152ft 0kts
01-Mar-16 17:38 36.082159 -115.151085 12 2152ft 0kts
01-Mar-16 17:39 36.082159 -115.151085 12 2152ft 0kts
01-Mar-16 17:40 36.082159 -115.151085 12 2152ft 0kts
01-Mar-16 17:41 36.082159 -115.151085 12 2152ft 0kts
01-Mar-16 17:42 36.082159 -115.151085 12 2152ft 0kts
01-Mar-16 17:43 36.082159 -115.151085 12 2152ft 0kts
01-Mar-16 17:44 36.082159 -115.151085 12 2152ft 0kts
01-Mar-16 17:45 36.082159 -115.151085 12 2152ft 0kts
01-Mar-16 17:46 36.082159 -115.151085 12 2152ft 0kts
01-Mar-16 17:47 36.082159 -115.151085 12 2152ft 0kts
01-Mar-16 17:48 36.082159 -115.151085 12 2152ft 0kts
01-Mar-16 17:49 36.082159 -115.151085 12 2152ft 0kts
01-Mar-16 17:50 36.082159 -115.151085 12 2152ft 0kts
01-Mar-16 17:51 36.082159 -115.151085 12 2152ft 0kts
01-Mar-16 17:52 36.082159 -115.151085 12 2152ft 0kts
01-Mar-16 17:53 36.082159 -115.151085 12 2152ft 0kts
01-Mar-16 17:54 36.082159 -115.151085 12 2152ft 0kts
01-Mar-16 17:55 36.082159 -115.151085 12 2152ft 0kts
01-Mar-16 17:56 36.082159 -115.151085 12 2152ft 0kts
01-Mar-16 17:57 36.082159 -115.151085 12 2152ft 0kts
01-Mar-16 17:58 36.082159 -115.151085 12 2152ft 0kts
01-Mar-16 17:59 36.081895 -115.151162 13 2152ft 2kts
01-Mar-16 18:00 36.081688 -115.151118 336 2152ft 0kts
01-Mar-16 18:01 36.081448 -115.153564 274 2152ft 0kts
01-Mar-16 18:02 36.080295 -115.154339 156 2152ft 21kts
01-Mar-16 18:03 36.077998 -115.155258 271 2152ft 15kts
01-Mar-16 18:04 36.077964 -115.160772 268 2152ft 14kts
01-Mar-16 18:05 36.075458 -115.164577 203 2152ft 16kts
01-Mar-16 18:06 36.074459 -115.165127 204 2152ft 6kts
01-Mar-16 18:07 36.074398 -115.165162 205 2152ft 0kts
01-Mar-16 18:08 36.075021 -115.167040 23 2152ft 8kts
01-Mar-16 18:09 36.092591 -115.157174 22 2864ft 176kts
01-Mar-16 18:10 36.120252 -115.205994 249 5188ft 255kts
01-Mar-16 18:11 36.098901 -115.288456 221 9019ft 262kts
01-Mar-16 18:12 36.027426 -115.327468 204 9041ft 288kts
01-Mar-16 18:13 35.952745 -115.363845 206 12185ft 286kts
01-Mar-16 18:14 35.873041 -115.370972 166 15602ft 322kts
01-Mar-16 18:15 35.785409 -115.336448 168 18168ft 339kts
01-Mar-16 18:16 35.695371 -115.310208 195 17416ft 316kts
01-Mar-16 18:17 35.626997 -115.366934 228 17168ft 297kts
01-Mar-16 18:18 35.543810 -115.389301 187 17069ft 327kts
01-Mar-16 18:19 35.453101 -115.391236 187 17058ft 327kts
01-Mar-16 18:20 35.360626 -115.392648 187 19969ft 345kts
01-Mar-16 18:21 35.262293 -115.392348 187 22583ft 365kts
01-Mar-16 18:22 35.175500 -115.432672 243 23089ft 342kts
01-Mar-16 18:23 35.159625 -115.548979 265 23051ft 357kts
01-Mar-16 18:24 35.112617 -115.663431 254 24760ft 385kts
01-Mar-16 18:25 35.070309 -115.781920 252 26112ft 378kts
01-Mar-16 18:26 35.024615 -115.897626 251 26107ft 378kts
01-Mar-16 18:27 34.978438 -116.012955 251 26113ft 379kts
01-Mar-16 18:28 34.932505 -116.127477 251 26140ft 379kts
01-Mar-16 18:29 34.886088 -116.243398 251 26136ft 380kts
01-Mar-16 18:30 34.839281 -116.359050 250 26106ft 386kts
01-Mar-16 18:31 34.779359 -116.477089 230 26083ft 430kts
01-Mar-16 18:32 34.685179 -116.568348 226 26087ft 434kts
01-Mar-16 18:33 34.589597 -116.658434 225 25460ft 437kts
01-Mar-16 18:34 34.495375 -116.746688 225 24177ft 402kts
01-Mar-16 18:35 34.411426 -116.825337 225 22462ft 387kts
01-Mar-16 18:36 34.332449 -116.899045 225 21303ft 378kts
01-Mar-16 18:37 34.251344 -116.974545 224 20140ft 370kts
01-Mar-16 18:38 34.171589 -117.048607 224 19004ft 363kts
01-Mar-16 18:39 34.100362 -117.128242 245 18117ft 343kts
01-Mar-16 18:40 34.055077 -117.228149 249 18111ft 342kts
01-Mar-16 18:41 34.039721 -117.337957 266 18014ft 335kts
01-Mar-16 18:42 34.029463 -117.445736 266 17091ft 328kts
01-Mar-16 18:43 34.019384 -117.551806 265 14211ft 321kts
01-Mar-16 18:44 34.009339 -117.656461 264 11111ft 307kts
01-Mar-16 18:45 34.000686 -117.745840 263 8976ft 262kts
01-Mar-16 18:46 33.993259 -117.821742 262 7985ft 223kts
01-Mar-16 18:47 33.985935 -117.896692 262 7023ft 238kts
01-Mar-16 18:48 33.978934 -117.968702 261 4994ft 226kts
01-Mar-16 18:49 33.971747 -118.042668 261 4984ft 231kts
01-Mar-16 18:50 33.965149 -118.109327 260 4104ft 194kts
01-Mar-16 18:51 33.958693 -118.173289 263 3642ft 186kts
01-Mar-16 18:52 33.953353 -118.226132 264 2581ft 139kts
01-Mar-16 18:53 33.949464 -118.264545 263 1884ft 138kts
01-Mar-16 18:54 33.943989 -118.318259 263 1209ft 137kts
01-Mar-16 18:55 33.940164 -118.355610 263 597ft 131kts
01-Mar-16 18:56 33.936022 -118.396148 262 137ft 82kts
01-Mar-16 18:57 33.936334 -118.408742 327 137ft 25kts
01-Mar-16 18:58 33.939048 -118.405684 86 137ft 29kts
01-Mar-16 18:59 33.940714 -118.400923 244 137ft 3kts

Navigation Log

Ident Type
Flight plan parsing failed, navigation log unavailable